Tiempo atmosférico en la estación meteorológica de Fuente Palmera, Córdoba (120 m.)



Fecha
DESCASC
Temp. máxima en grados centígrados (hora)
DESCASC
Temp. mínima en grados centígrados (hora)
DESCASC
Temp. media en grados centígrados
DESCASC
Racha de viento máxima en m/sg (hora)
DESCASC
Velocidad máxima media en intervalos de 10 minutos(hora)
DESCASC
Precipitaciones diarias en mm
DESCASC
Precipitaciones de 00:00 a 06:00 en mm
DESCASC
Precipitaciones de 06:00 a 12:00 en mm
DESCASC
Precipitaciones de 12:00 a 18:00 en mm
DESCASC
Precipitaciones de 18:00 a 24:00 en mm
DESCASC
18-02-2018 18 (17:00) 5.1 (07:50) 11.5 6.94 (12:10) 4.72 (12:10) 0.2 0 0.2 0 0
17-02-2018 16.2 (17:20) 5.2 (06:10) 10.7 3.89 (14:50) 1.94 (13:40) 0 0 0 0 0
16-02-2018 21.8 (17:10) 5.8 (08:10) 13.8 4.72 (13:00) 2.78 (11:20) 0 0 0 0 0
15-02-2018 19.7 (17:20) 3.8 (00:00) 11.8 6.11 (13:20) 4.17 (13:20) 0 0 0 0 0
14-02-2018 16.4 (16:40) 1.3 (00:00) 8.8 5.28 (15:10) 2.5 (17:10) 0 0 0 0 0
13-02-2018 15 (17:00) 1 (00:00) 8 8.33 (14:00) 3.61 (17:20) 0 0 0 0 0
12-02-2018 17.3 (15:40) 6.7 (00:00) 12 9.17 (13:30) 6.11 (16:20) 2.2 0 1.4 0.8 0
11-02-2018 16.9 (17:20) 1.6 (00:00) 9.2 6.67 (16:50) 4.44 (16:50) 0 0 0 0 0
10-02-2018 15.4 (17:30) 2.6 (00:00) 9 6.11 (13:00) 3.33 (13:20) 0 0 0 0 0
09-02-2018 12.8 (17:00) -1.2 (-00:0) 5.8 5.56 (16:40) 3.33 (17:10) 0 0 0 0 0
08-02-2018 13.3 (16:50) 0 (00:00) 6.7 7.5 (11:00) 4.17 (12:20) 0 0 0 0 0
07-02-2018 11.2 (15:50) 2.7 (00:00) 6.9 12.78 (12:20) 8.06 (12:20) -- 0 -- 0 0
06-02-2018 11.7 (17:20) 2.4 (00:00) 7 8.61 (11:50) 5.83 (11:50) 0 0 0 0 0
05-02-2018 9.9 (16:20) 2.8 (00:00) 6.3 6.39 (16:30) 4.17 (13:40) 0.6 0 0.4 0.2 0
04-02-2018 12.2 (16:40) 4.1 (00:00) 8.1 5.56 (14:00) 3.33 (19:20) 2 1.8 0.2 0 0
03-02-2018 14.1 (16:50) -0.4 (00:00) 6.9 6.39 (15:30) 3.33 (15:50) 0 0 0 0 0
02-02-2018 13.4 (16:30) 3.8 (00:00) 8.6 11.11 (00:10) 7.78 (00:10) -- 0 -- 0 0
01-02-2018 15.1 (16:10) 3.5 (00:00) 9.3 9.72 (23:59) 6.11 (23:59) 0 0 0 0 0
31-01-2018 16.9 (16:20) 6.5 (00:00) 11.7 7.78 (12:20) 5 (16:30) 0 0 0 0 0
30-01-2018 16.6 (15:40) 6.5 (00:00) 11.6 9.72 (11:30) 5.28 (11:30) 0 0 0 0 0
29-01-2018 18.8 (15:20) 7 (00:00) 12.9 18.89 (13:00) 11.11 (12:40) 0 0 0 0 0
28-01-2018 15.7 (16:10) 3.2 (00:00) 9.4 18.06 (16:20) 11.11 (17:20) 0 0 0 0 0
27-01-2018 13.9 (16:00) 3 (00:00) 8.4 11.94 (14:00) 6.94 (13:50) 0 0 0 0 0
26-01-2018 13.3 (15:20) 4.5 (00:00) 8.9 8.33 (14:20) 4.44 (16:20) 0 0 0 0 0
25-01-2018 14.6 (15:10) 7.7 (00:00) 11.2 11.11 (16:30) 7.78 (16:30) 4.2 0 0 0.4 3.8
24-01-2018 18.5 (16:30) 5.3 (00:00) 11.9 5.83 (12:40) 3.89 (12:50) 0.2 0 0.2 0 0
23-01-2018 20.4 (17:30) 4.5 (00:00) 12.4 5 (12:30) 3.06 (12:30) 0 0 0 0 0
22-01-2018 19.1 (17:40) 4.2 (00:00) 11.7 4.17 (11:20) 2.5 (11:20) 0.2 0 0.2 0 0

Gráficas

Temp. máximas Temp. mínimas Temp. medias Precipitaciones Rachas de viento máximas Velocidades máximas media en intervalos de 10 minutos

Datos horarios

Fecha y hora oficial Temperatura (ºC) Velocidad del viento (km/h) Dirección del viento Racha (km/h) Dirección de racha Precipitación (mm) Presión (hPa) Tendencia (hPa) Humedad (%)
2018-02-20 23:00:00 12.5 7 Este 14 Este 0 -- -- 55
2018-02-20 22:00:00 13.2 3 Nordeste 5 Nordeste 0 -- -- 51
2018-02-20 21:00:00 14.1 4 Nordeste 17 Norte 0 -- -- 48
2018-02-20 20:00:00 16.6 10 Norte 15 Norte 0 -- -- 41
2018-02-20 19:00:00 18.9 8 Norte 12 Norte 0 -- -- 38
2018-02-20 18:00:00 21.3 4 Noroeste 8 Oeste 0 -- -- 34
2018-02-20 17:00:00 20.7 4 Norte 12 Nordeste 0 -- -- 36
2018-02-20 16:00:00 20.8 4 Sur 14 Nordeste 0 -- -- 37
2018-02-20 15:00:00 19.4 5 Nordeste 17 Nordeste 0 -- -- 41
2018-02-20 14:00:00 18.3 9 Este 21 Este 0 -- -- 42
2018-02-20 13:00:00 17.2 13 Este 21 Este 0 -- -- 44
2018-02-20 12:00:00 15.4 10 Este 19 Nordeste 0 -- -- 51
2018-02-20 11:00:00 12.1 6 Nordeste 12 Este 0 -- -- 61
2018-02-20 10:00:00 9.5 5 Nordeste 9 Nordeste 0 -- -- 73
2018-02-20 09:00:00 6.2 8 Este 14 Este 0 -- -- 82
2018-02-20 08:00:00 4.9 8 Este 13 Este 0 -- -- 86
2018-02-20 07:00:00 5 9 Este 17 Nordeste 0 -- -- 85
2018-02-20 06:00:00 5.7 5 Este 13 Este 0 -- -- 83
2018-02-20 05:00:00 6 6 Este 9 Este 0 -- -- 81
2018-02-20 04:00:00 6.6 6 Este 9 Este 0 -- -- 79
2018-02-20 03:00:00 7.3 5 Este 7 Este 0 -- -- 76
2018-02-20 02:00:00 7.6 5 Sudeste 8 Sudeste 0 -- -- 74
2018-02-20 01:00:00 8.7 0 Calma 6 Norte 0 -- -- 69
2018-02-20 00:00:00 9.3 3 Nordeste 5 Nordeste 0 -- -- 66
2018-02-19 23:00:00 9.8 3 Noroeste 6 Norte 0 -- -- 66
2018-02-19 22:00:00 10.9 2 Este 8 Sudeste 0 -- -- 64
2018-02-19 21:00:00 11.7 4 Este 7 Sudeste 0 -- -- 61
2018-02-19 20:00:00 14.3 0 Calma 3 Norte 0 -- -- 51
2018-02-19 19:00:00 16.9 3 Norte 9 Norte 0 -- -- 42
2018-02-19 18:00:00 18 5 Nordeste 13 Nordeste 0 -- -- 39
2018-02-19 17:00:00 18.1 8 Este 20 Este 0 -- -- 39
2018-02-19 16:00:00 18.1 9 Este 21 Sudeste 0 -- -- 39
2018-02-19 15:00:00 17.3 12 Este 24 Este 0 -- -- 41
2018-02-19 14:00:00 16.2 12 Este 24 Nordeste 0 -- -- 43
2018-02-19 13:00:00 14.7 8 Este 19 Este 0 -- -- 49
2018-02-19 12:00:00 11.8 6 Nordeste 13 Nordeste 0 -- -- 57
2018-02-19 11:00:00 9.2 6 Nordeste 10 Este 0 -- -- 62
2018-02-19 10:00:00 5.2 3 Nordeste 8 Este 0 -- -- 79
2018-02-19 09:00:00 4.3 3 Este 10 Este 0 -- -- 82
2018-02-19 08:00:00 4.3 7 Este 10 Este 0 -- -- 82
2018-02-19 07:00:00 5.4 5 Nordeste 10 Este 0 -- -- 74
2018-02-19 06:00:00 5.2 5 Este 8 Este 0 -- -- 72
2018-02-19 05:00:00 6 2 Este 7 Nordeste 0 -- -- 70
2018-02-19 04:00:00 7 3 Nordeste 10 Nordeste 0 -- -- 66
2018-02-19 03:00:00 7.2 3 Nordeste 12 Este 0 -- -- 70
2018-02-19 02:00:00 8.4 4 Este 9 Nordeste 0 -- -- 80
2018-02-19 01:00:00 8.9 4 Nordeste 12 Este 0 -- -- 79
2018-02-19 00:00:00 9.9 3 Este 7 Sudeste 0 -- -- 75
2018-02-18 23:00:00 10.6 4 Nordeste 8 Noroeste 0 -- -- 71
2018-02-18 22:00:00 11.2 3 Este 8 Este 0 -- -- 75
2018-02-18 21:00:00 11.9 3 Este 5 Este 0 -- -- 75
2018-02-18 20:00:00 14.3 0 Calma 5 Este 0 -- -- 64
2018-02-18 19:00:00 16.2 4 Este 9 Nordeste 0 -- -- 59
2018-02-18 18:00:00 17.7 7 Nordeste 14 Nordeste 0 -- -- 53
2018-02-18 17:00:00 18 9 Nordeste 15 Nordeste 0 -- -- 52
2018-02-18 16:00:00 17.8 7 Nordeste 18 Nordeste 0 -- -- 52
2018-02-18 15:00:00 17.9 9 Este 23 Nordeste 0 -- -- 53
2018-02-18 14:00:00 17 11 Este 22 Este 0 -- -- 59
2018-02-18 13:00:00 15.3 14 Este 25 Este 0 -- -- 60
2018-02-18 12:00:00 13.7 15 Nordeste 24 Este 0 -- -- 71
2018-02-18 11:00:00 10.9 13 Nordeste 19 Este 0.2 -- -- 94
2018-02-18 10:00:00 7.3 5 Este 12 Este 0 -- -- 100
2018-02-18 09:00:00 6.1 6 Este 9 Este 0 -- -- 99
2018-02-18 08:00:00 5.3 7 Este 13 Este 0 -- -- 99
2018-02-18 07:00:00 5.4 4 Este 7 Este 0 -- -- 99
2018-02-18 06:00:00 5.6 3 Este 7 Este 0 -- -- 98
2018-02-18 05:00:00 5.4 4 Este 8 Este 0 -- -- 98
2018-02-18 04:00:00 5.4 4 Este 6 Este 0 -- -- 97
2018-02-18 03:00:00 5.9 3 Sudeste 9 Sudeste 0 -- -- 96
2018-02-18 02:00:00 6.3 3 Este 6 Sur 0 -- -- 95
2018-02-18 01:00:00 7.4 2 Sur 7 Sur 0 -- -- 95
2018-02-18 00:00:00 8.4 4 Sudoeste 8 Oeste 0 -- -- 95
2018-02-17 23:00:00 8.9 4 Oeste 6 Sur 0 -- -- 94
2018-02-17 22:00:00 9.2 3 Sudeste 5 Sudeste 0 -- -- 91
2018-02-17 21:00:00 10.9 2 Sudeste 6 Este 0 -- -- 86
2018-02-17 20:00:00 12.2 4 Sudeste 5 Sudeste 0 -- -- 83
2018-02-17 19:00:00 14.1 2 Norte 6 Oeste 0 -- -- 77
2018-02-17 18:00:00 15.8 3 Noroeste 10 Oeste 0 -- -- 70
2018-02-17 17:00:00 15.9 6 Oeste 13 Oeste 0 -- -- 70
2018-02-17 16:00:00 15.1 5 Sudoeste 12 Oeste 0 -- -- 74
2018-02-17 15:00:00 12.7 5 Oeste 14 Oeste 0 -- -- 84
2018-02-17 14:00:00 11.8 6 Oeste 14 Sudoeste 0 -- -- 87
2018-02-17 13:00:00 10.6 6 Oeste 13 Oeste 0 -- -- 93
2018-02-17 12:00:00 9 3 Oeste 6 Norte 0 -- -- 99
2018-02-17 11:00:00 8.2 3 Noroeste 5 Noroeste 0 -- -- 99
2018-02-17 10:00:00 7.5 0 Calma 3 Norte 0 -- -- 98
2018-02-17 09:00:00 7 0 Calma 5 Este 0 -- -- 98
2018-02-17 08:00:00 6.4 0 Calma 4 Este 0 -- -- 97
2018-02-17 07:00:00 5.6 2 Este 6 Sudeste 0 -- -- 96
2018-02-17 06:00:00 5.3 3 Este 5 Este 0 -- -- 95
2018-02-17 05:00:00 5.7 3 Este 4 Sudeste 0 -- -- 93
2018-02-17 04:00:00 6.8 2 Sudeste 4 Sudeste 0 -- -- 94
2018-02-17 03:00:00 7.7 3 Sudeste 4 Sudeste 0 -- -- 92
2018-02-17 02:00:00 8.3 0 Calma 7 Sur 0 -- -- 89
2018-02-17 01:00:00 9.5 5 Sur 9 Sur 0 -- -- 84
2018-02-17 00:00:00 10.7 4 Sudoeste 8 Sudoeste 0 -- -- 81
2018-02-16 23:00:00 11 0 Calma 8 Sudoeste 0 -- -- 72
2018-02-16 22:00:00 13.2 4 Sudoeste 6 Sudoeste 0 -- -- 62
2018-02-16 21:00:00 14.1 5 Oeste 13 Sudoeste 0 -- -- 57
2018-02-16 20:00:00 15.8 8 Sudoeste 15 Sudoeste 0 -- -- 51
2018-02-16 19:00:00 18.6 8 Sudoeste 14 Sudoeste 0 -- -- 48
2018-02-16 18:00:00 21.2 6 Sudoeste 15 Oeste 0 -- -- 44
2018-02-16 17:00:00 21.7 5 Sudoeste 15 Sur 0 -- -- 40
2018-02-16 16:00:00 21.3 5 Sudoeste 10 Sur 0 -- -- 43
2018-02-16 15:00:00 20.3 3 Este 9 Noroeste 0 -- -- 50
2018-02-16 14:00:00 18.7 5 Sudeste 14 Este 0 -- -- 58
2018-02-16 13:00:00 16.8 8 Este 17 Este 0 -- -- 64
2018-02-16 12:00:00 14.7 8 Nordeste 14 Nordeste 0 -- -- 69
2018-02-16 11:00:00 12.5 6 Nordeste 13 Nordeste 0 -- -- 78
2018-02-16 10:00:00 9.8 6 Nordeste 10 Nordeste 0 -- -- 87
2018-02-16 09:00:00 7 5 Este 10 Este 0 -- -- 95
2018-02-16 08:00:00 5.9 8 Este 11 Este 0 -- -- 95
2018-02-16 07:00:00 6.6 6 Este 10 Este 0 -- -- 93
2018-02-16 06:00:00 7.3 8 Este 13 Nordeste 0 -- -- 93
2018-02-16 05:00:00 7.7 8 Este 11 Este 0 -- -- 93
2018-02-16 04:00:00 8.4 4 Este 12 Este 0 -- -- 89
2018-02-16 03:00:00 9 6 Este 10 Este 0 -- -- 88
2018-02-16 02:00:00 9.1 5 Este 9 Este 0 -- -- 87
2018-02-16 01:00:00 9.7 2 Este 4 Nordeste 0 -- -- 84
2018-02-16 00:00:00 10.6 0 Calma 5 Norte 0 -- -- 81
2018-02-15 23:00:00 11.2 3 Este 6 Este 0 -- -- 80
2018-02-15 22:00:00 11.9 0 Calma 10 Nordeste 0 -- -- 76
2018-02-15 21:00:00 13.4 6 Este 10 Nordeste 0 -- -- 71
2018-02-15 20:00:00 15.5 0 Calma 4 Sudeste 0 -- -- 62
2018-02-15 19:00:00 18 4 Sudeste 6 Sudeste 0 -- -- 54
2018-02-15 18:00:00 19.7 2 Sudeste 8 Sudeste 0 -- -- 48
2018-02-15 17:00:00 19.5 3 Sudeste 13 Este 0 -- -- 48
2018-02-15 16:00:00 18.8 5 Este 17 Este 0 -- -- 50
2018-02-15 15:00:00 17.9 8 Este 21 Este 0 -- -- 53
2018-02-15 14:00:00 17.1 10 Nordeste 22 Nordeste 0 -- -- 55
2018-02-15 13:00:00 15.9 14 Este 21 Nordeste 0 -- -- 58
2018-02-15 12:00:00 13.3 13 Este 19 Este 0 -- -- 63
2018-02-15 11:00:00 10.2 9 Nordeste 15 Nordeste 0 -- -- 75
2018-02-15 10:00:00 7.6 8 Este 13 Este 0 -- -- 86
2018-02-15 09:00:00 5.1 4 Este 6 Este 0 -- -- 94
2018-02-15 08:00:00 3.8 6 Este 8 Este 0 -- -- 94
2018-02-15 07:00:00 4.4 4 Este 6 Este 0 -- -- 93
2018-02-15 06:00:00 4.5 0 Calma 6 Este 0 -- -- 94
2018-02-15 05:00:00 4.6 4 Este 6 Este 0 -- -- 93
2018-02-15 04:00:00 5.1 0 Calma 7 Este 0 -- -- 92
2018-02-15 03:00:00 5.7 5 Este 10 Nordeste 0 -- -- 90
2018-02-15 02:00:00 6.1 3 Nordeste 6 Nordeste 0 -- -- 89
2018-02-15 01:00:00 6.7 5 Sudeste 8 Este 0 -- -- 87
2018-02-15 00:00:00 7.4 3 Este 5 Este 0 -- -- 84
2018-02-14 23:00:00 8.5 0 Calma 4 Oeste 0 -- -- 78
2018-02-14 22:00:00 9.3 3 Sudoeste 7 Sudoeste 0 -- -- 74
2018-02-14 21:00:00 10.2 2 Sudoeste 12 Sudoeste 0 -- -- 70
2018-02-14 20:00:00 11.9 8 Sur 12 Sur 0 -- -- 65
2018-02-14 19:00:00 13.7 7 Sudoeste 13 Sudoeste 0 -- -- 57
2018-02-14 18:00:00 15.9 9 Oeste 19 Oeste 0 -- -- 49
2018-02-14 17:00:00 16.3 8 Sudoeste 15 Oeste 0 -- -- 47
2018-02-14 16:00:00 16.1 8 Oeste 19 Sur 0 -- -- 47
2018-02-14 15:00:00 15.5 4 Sur 13 Noroeste 0 -- -- 47
2018-02-14 14:00:00 14.3 5 Oeste 10 Sur 0 -- -- 50
2018-02-14 13:00:00 12.9 4 Este 9 Sudeste 0 -- -- 59
2018-02-14 12:00:00 10.2 4 Este 10 Este 0 -- -- 69
2018-02-14 11:00:00 7.5 5 Este 12 Este 0 -- -- 79
2018-02-14 10:00:00 5 4 Nordeste 8 Nordeste 0 -- -- 87
2018-02-14 09:00:00 2.6 3 Sudeste 5 Este 0 -- -- 95
2018-02-14 08:00:00 1.4 4 Este 6 Este 0 -- -- 95
2018-02-14 07:00:00 1.8 0 Calma 4 Este 0 -- -- 93
2018-02-14 06:00:00 2.2 3 Este 5 Este 0 -- -- 94
2018-02-14 05:00:00 2.1 4 Este 6 Este 0 -- -- 94
2018-02-14 04:00:00 2 2 Nordeste 4 Nordeste 0 -- -- 91
2018-02-14 03:00:00 3.1 3 Este 6 Este 0 -- -- 89
2018-02-14 02:00:00 4.1 4 Sudeste 7 Este 0 -- -- 86
2018-02-14 01:00:00 4.7 4 Sudeste 5 Sudeste 0 -- -- 82
2018-02-14 00:00:00 6.1 2 Este 6 Sudoeste 0 -- -- 72
2018-02-13 23:00:00 7.1 3 Oeste 6 Sudeste 0 -- -- 63
2018-02-13 22:00:00 8.1 6 Sur 15 Sur 0 -- -- 60
2018-02-13 21:00:00 8.8 10 Sudoeste 14 Sudoeste 0 -- -- 56
2018-02-13 20:00:00 9.5 7 Sudoeste 11 Sudoeste 0 -- -- 54
2018-02-13 19:00:00 11.8 7 Sudoeste 16 Sur 0 -- -- 45
2018-02-13 18:00:00 14.5 10 Sudoeste 23 Sudoeste 0 -- -- 37
2018-02-13 17:00:00 15 11 Sudoeste 25 Sudoeste 0 -- -- 37
2018-02-13 16:00:00 14.7 9 Oeste 26 Oeste 0 -- -- 37
2018-02-13 15:00:00 13.9 12 Oeste 27 Oeste 0 -- -- 41
2018-02-13 14:00:00 12.7 11 Oeste 30 Oeste 0 -- -- 47
2018-02-13 13:00:00 11.4 10 Oeste 19 Oeste 0 -- -- 53
2018-02-13 12:00:00 10 6 Noroeste 12 Oeste 0 -- -- 58
2018-02-13 11:00:00 8.4 2 Sudeste 5 Nordeste 0 -- -- 61
2018-02-13 10:00:00 5.2 3 Norte 6 Sur 0 -- -- 77
2018-02-13 09:00:00 2.3 4 Sudeste 6 Sudeste 0 -- -- 89
2018-02-13 08:00:00 1.3 4 Sudeste 8 Sudeste 0 -- -- 89
2018-02-13 07:00:00 1.6 3 Sudeste 8 Sudoeste 0 -- -- 86
2018-02-13 06:00:00 2.9 0 Calma 8 Oeste 0 -- -- 78
2018-02-13 05:00:00 4.6 4 Oeste 8 Oeste 0 -- -- 66
2018-02-13 04:00:00 5.5 0 Calma 7 Norte 0 -- -- 61
2018-02-13 03:00:00 6.7 5 Noroeste 18 Noroeste 0 -- -- 56
2018-02-13 02:00:00 5.1 3 Oeste 8 Oeste 0 -- -- 62
2018-02-13 01:00:00 5.5 5 Sudoeste 15 Noroeste 0 -- -- 61
2018-02-13 00:00:00 6.7 4 Oeste 12 Oeste 0 -- -- 59
2018-02-12 23:00:00 7.6 6 Sudoeste 12 Sudoeste 0 -- -- 55
2018-02-12 22:00:00 9.1 6 Oeste 17 Noroeste 0 -- -- 54
2018-02-12 21:00:00 8.8 7 Sudoeste 13 Oeste 0 -- -- 59
2018-02-12 20:00:00 11.1 7 Oeste 12 Oeste 0 -- -- 51
2018-02-12 19:00:00 13.2 8 Noroeste 28 Norte 0 -- -- 41
2018-02-12 18:00:00 15.3 14 Noroeste 31 Noroeste 0 -- -- 36
2018-02-12 17:00:00 16.3 18 Noroeste 32 Norte 0 -- -- 42
2018-02-12 16:00:00 16.6 19 Noroeste 32 Norte 0 -- -- 41
2018-02-12 15:00:00 15.9 10 Oeste 18 Sudoeste 0 -- -- 66
2018-02-12 14:00:00 12.5 6 Noroeste 33 Oeste 0.8 -- -- 89
2018-02-12 13:00:00 13.1 14 Oeste 30 Oeste 0 -- -- 88
2018-02-12 12:00:00 12.2 14 Oeste 26 Oeste 0 -- -- 91
2018-02-12 11:00:00 10.7 7 Sudoeste 14 Oeste 0.8 -- -- 97
2018-02-12 10:00:00 10 4 Oeste 11 Oeste 0.6 -- -- 96
2018-02-12 09:00:00 9.8 4 Sudoeste 12 Sur 0 -- -- 95
2018-02-12 08:00:00 9.8 8 Oeste 13 Oeste 0 -- -- 94
2018-02-12 07:00:00 9.2 0 Calma 4 Noroeste 0 -- -- 90
2018-02-12 06:00:00 9.5 2 Oeste 8 Oeste 0 -- -- 89
2018-02-12 05:00:00 9.5 2 Oeste 7 Oeste 0 -- -- 90
2018-02-12 04:00:00 9.6 3 Oeste 7 Oeste 0 -- -- 90
2018-02-12 03:00:00 10.1 2 Sudoeste 6 Sudoeste 0 -- -- 83
2018-02-12 02:00:00 10.2 3 Sudoeste 6 Oeste 0 -- -- 80
2018-02-12 01:00:00 10.4 2 Sur 9 Sudoeste 0 -- -- 80
2018-02-12 00:00:00 9.9 5 Oeste 10 Sudoeste 0 -- -- 76
2018-02-11 23:00:00 10.8 7 Sudoeste 18 Sudoeste 0 -- -- 70
2018-02-11 22:00:00 11.6 9 Sudoeste 17 Sudoeste 0 -- -- 63
2018-02-11 21:00:00 11.3 7 Sudoeste 14 Oeste 0 -- -- 64
2018-02-11 20:00:00 12.2 8 Sudoeste 19 Sudoeste 0 -- -- 61
2018-02-11 19:00:00 14.1 9 Sudoeste 19 Sudoeste 0 -- -- 54
2018-02-11 18:00:00 16.6 9 Sudoeste 23 Oeste 0 -- -- 49
2018-02-11 17:00:00 16.7 15 Oeste 24 Oeste 0 -- -- 46
2018-02-11 16:00:00 16.4 12 Oeste 22 Oeste 0 -- -- 47
2018-02-11 15:00:00 15.7 10 Oeste 19 Oeste 0 -- -- 48
2018-02-11 14:00:00 14.2 3 Sudoeste 9 Sudeste 0 -- -- 48
2018-02-11 13:00:00 12.6 3 Sudeste 8 Sudeste 0 -- -- 52
2018-02-11 12:00:00 10.3 3 Este 10 Nordeste 0 -- -- 58
2018-02-11 11:00:00 7.7 5 Este 11 Nordeste 0 -- -- 69
2018-02-11 10:00:00 4.9 6 Este 9 Este 0 -- -- 80
2018-02-11 09:00:00 2.6 3 Este 9 Este 0 -- -- 89
2018-02-11 08:00:00 2.3 8 Este 13 Nordeste 0 -- -- 89
2018-02-11 07:00:00 2.5 5 Este 9 Este 0 -- -- 89
2018-02-11 06:00:00 2.6 5 Este 9 Este 0 -- -- 89
2018-02-11 05:00:00 2.8 5 Este 9 Este 0 -- -- 87
2018-02-11 04:00:00 3.5 2 Este 4 Sudeste 0 -- -- 84
2018-02-11 03:00:00 4 3 Este 6 Este 0 -- -- 83
2018-02-11 02:00:00 4.5 3 Este 6 Este 0 -- -- 83
2018-02-11 01:00:00 6 0 Calma 5 Sudeste 0 -- -- 76
2018-02-11 00:00:00 6.5 0 Calma 10 Sudeste 0 -- -- 72
2018-02-10 23:00:00 7 6 Sudeste 13 Norte 0 -- -- 71
2018-02-10 22:00:00 8.8 7 Nordeste 15 Norte 0 -- -- 63
2018-02-10 21:00:00 9.6 8 Norte 15 Norte 0 -- -- 61
2018-02-10 20:00:00 10.6 6 Norte 9 Norte 0 -- -- 58
2018-02-10 19:00:00 13 5 Sur 8 Oeste 0 -- -- 53
2018-02-10 18:00:00 15.2 5 Oeste 12 Oeste 0 -- -- 45
2018-02-10 17:00:00 15.1 4 Noroeste 12 Sudeste 0 -- -- 45
2018-02-10 16:00:00 14.7 6 Noroeste 17 Nordeste 0 -- -- 45
2018-02-10 15:00:00 13.5 9 Este 17 Sudeste 0 -- -- 47
2018-02-10 14:00:00 12.8 6 Este 21 Este 0 -- -- 49
2018-02-10 13:00:00 11.3 11 Este 22 Este 0 -- -- 58
2018-02-10 12:00:00 9.7 7 Nordeste 15 Nordeste 0 -- -- 68
2018-02-10 11:00:00 7.9 7 Este 11 Este 0 -- -- 72
2018-02-10 10:00:00 5.8 7 Este 11 Este 0 -- -- 78
2018-02-10 09:00:00 2.8 4 Este 9 Este 0 -- -- 91
2018-02-10 08:00:00 2.8 5 Sudeste 6 Sudeste 0 -- -- 90
2018-02-10 07:00:00 3.2 2 Nordeste 6 Norte 0 -- -- 89
2018-02-10 06:00:00 3.5 4 Norte 8 Este 0 -- -- 86
2018-02-10 05:00:00 3 5 Este 8 Este 0 -- -- 88
2018-02-10 04:00:00 3.4 4 Este 6 Este 0 -- -- 86
2018-02-10 03:00:00 3.8 3 Sudeste 6 Sudeste 0 -- -- 86
2018-02-10 02:00:00 3.4 2 Nordeste 7 Sur 0 -- -- 89
2018-02-10 01:00:00 4 4 Este 5 Este 0 -- -- 84
2018-02-10 00:00:00 5 3 Sudeste 5 Este 0 -- -- 78
2018-02-09 23:00:00 6.6 3 Oeste 9 Oeste 0 -- -- 66
2018-02-09 22:00:00 8 5 Sudoeste 10 Sudoeste 0 -- -- 61
2018-02-09 21:00:00 8.6 7 Sudoeste 13 Sudoeste 0 -- -- 56
2018-02-09 20:00:00 9 5 Sudoeste 9 Oeste 0 -- -- 51
2018-02-09 19:00:00 11.2 6 Oeste 14 Oeste 0 -- -- 45
2018-02-09 18:00:00 12.8 9 Oeste 18 Oeste 0 -- -- 37
2018-02-09 17:00:00 12.8 9 Oeste 20 Oeste 0 -- -- 37
2018-02-09 16:00:00 11.8 9 Oeste 19 Oeste 0 -- -- 38
2018-02-09 15:00:00 11.3 9 Oeste 17 Oeste 0 -- -- 39
2018-02-09 14:00:00 10.1 9 Sudoeste 18 Sudoeste 0 -- -- 42
2018-02-09 13:00:00 9.4 5 Sur 9 Sur 0 -- -- 47
2018-02-09 12:00:00 7.8 3 Sur 8 Sudeste 0 -- -- 55
2018-02-09 11:00:00 4.6 4 Este 11 Este 0 -- -- 65
2018-02-09 10:00:00 2.3 5 Nordeste 9 Este 0 -- -- 74
2018-02-09 09:00:00 -0.2 4 Este 8 Este 0 -- -- 82
2018-02-09 08:00:00 -0.9 5 Este 9 Nordeste 0 -- -- 80
2018-02-09 07:00:00 -0.7 6 Nordeste 9 Nordeste 0 -- -- 79
2018-02-09 06:00:00 -0.3 3 Este 5 Sudeste 0 -- -- 77
2018-02-09 05:00:00 0.3 3 Este 5 Nordeste 0 -- -- 74
2018-02-09 04:00:00 1.8 4 Nordeste 9 Nordeste 0 -- -- 65
2018-02-09 03:00:00 1.9 3 Este 8 Nordeste 0 -- -- 66
2018-02-09 02:00:00 2 4 Nordeste 6 Nordeste 0 -- -- 65
2018-02-09 01:00:00 2.2 2 Nordeste 7 Sudeste 0 -- -- 66
2018-02-09 00:00:00 2.9 4 Sudeste 7 Nordeste 0 -- -- 64
2018-02-08 23:00:00 4.2 4 Nordeste 8 Nordeste 0 -- -- 56
2018-02-08 22:00:00 5.2 3 Nordeste 6 Norte 0 -- -- 52
2018-02-08 21:00:00 6.6 5 Norte 14 Norte 0 -- -- 46
2018-02-08 20:00:00 8.1 10 Nordeste 18 Norte 0 -- -- 40
2018-02-08 19:00:00 10.1 12 Norte 23 Nordeste 0 -- -- 36
2018-02-08 18:00:00 12.8 3 Nordeste 13 Nordeste 0 -- -- 36
2018-02-08 17:00:00 13.3 3 Norte 16 Nordeste 0 -- -- 33
2018-02-08 16:00:00 13 6 Este 22 Este 0 -- -- 34
2018-02-08 15:00:00 12.3 10 Este 24 Este 0 -- -- 34
2018-02-08 14:00:00 11.3 13 Nordeste 24 Nordeste 0 -- -- 37
2018-02-08 13:00:00 10 11 Nordeste 23 Este 0 -- -- 40
2018-02-08 12:00:00 8.7 13 Este 22 Este 0 -- -- 44
2018-02-08 11:00:00 6.8 14 Este 27 Este 0 -- -- 50
2018-02-08 10:00:00 4.2 7 Nordeste 15 Este 0 -- -- 67
2018-02-08 09:00:00 1.4 7 Nordeste 19 Este 0 -- -- 76
2018-02-08 08:00:00 0.3 9 Este 14 Este 0 -- -- 81
2018-02-08 07:00:00 0.2 5 Este 9 Nordeste 0 -- -- 81
2018-02-08 06:00:00 0.7 6 Este 10 Este 0 -- -- 78
2018-02-08 05:00:00 0.7 6 Nordeste 12 Nordeste 0 -- -- 77
2018-02-08 04:00:00 1 4 Este 8 Nordeste 0 -- -- 77
2018-02-08 03:00:00 1.5 6 Nordeste 9 Nordeste 0 -- -- 74
2018-02-08 02:00:00 1.8 3 Norte 8 Este 0 -- -- 71
2018-02-08 01:00:00 2 2 Este 12 Este 0 -- -- 69
2018-02-08 00:00:00 2.7 4 Nordeste 11 Este 0 -- -- 66
2018-02-07 23:00:00 4.1 8 Este 16 Nordeste 0 -- -- 59
2018-02-07 22:00:00 4.8 10 Este 18 Este 0 -- -- 54
2018-02-07 21:00:00 6.2 11 Este 19 Nordeste 0 -- -- 48
2018-02-07 20:00:00 7.5 14 Nordeste 23 Nordeste 0 -- -- 44
2018-02-07 19:00:00 9.2 16 Nordeste 25 Nordeste 0 -- -- 40
2018-02-07 18:00:00 10.2 14 Este 34 Este 0 -- -- 43
2018-02-07 17:00:00 11.1 17 Este 34 Este 0 -- -- 39
2018-02-07 16:00:00 11.2 19 Este 39 Este 0 -- -- 41
2018-02-07 15:00:00 10.8 20 Este 33 Este 0 -- -- 43
2018-02-07 14:00:00 10.2 21 Este 34 Este 0 -- -- 46
2018-02-07 13:00:00 9.3 23 Este 46 Nordeste 0 -- -- 48
2018-02-07 12:00:00 8.2 27 Nordeste 41 Nordeste 0 -- -- 50
2018-02-07 11:00:00 7.4 25 Nordeste -- -- -- -- -- 64
2018-02-07 10:00:00 5.8 17 Este 27 Nordeste 0 -- -- 78
2018-02-07 09:00:00 3.6 4 Nordeste 10 Nordeste 0 -- -- 87
2018-02-07 08:00:00 4 3 Nordeste 8 Este 0 -- -- 86
2018-02-07 07:00:00 4.3 3 Nordeste 10 Este 0 -- -- 85
2018-02-07 06:00:00 4.4 6 Este 21 Nordeste 0 -- -- 84
2018-02-07 05:00:00 4.7 13 Este 28 Este 0 -- -- 82
2018-02-07 04:00:00 4.9 16 Este 28 Nordeste 0 -- -- 81
2018-02-07 03:00:00 5 13 Este 26 Este 0 -- -- 82
2018-02-07 02:00:00 5.1 10 Este 19 Este 0 -- -- 82
2018-02-07 01:00:00 5.2 6 Sudeste 14 Sudeste 0 -- -- 83
2018-02-07 00:00:00 6.2 8 Este 15 Nordeste 0 -- -- 77
2018-02-06 23:00:00 6.7 6 Este 13 Este 0 -- -- 78
2018-02-06 22:00:00 7 8 Nordeste 14 Nordeste 0 -- -- 77
2018-02-06 21:00:00 7.1 4 Nordeste 7 Este 0 -- -- 78
2018-02-06 20:00:00 7.8 6 Sur 12 Sudeste 0 -- -- 72
2018-02-06 19:00:00 9.3 6 Sudeste 9 Este 0 -- -- 66
2018-02-06 18:00:00 10.6 4 Este 13 Este 0 -- -- 54
2018-02-06 17:00:00 11.4 5 Este 19 Este 0 -- -- 52
2018-02-06 16:00:00 10.9 9 Nordeste 21 Nordeste 0 -- -- 54
2018-02-06 15:00:00 10.8 7 Norte 22 Norte 0 -- -- 54
2018-02-06 14:00:00 10.6 10 Nordeste 25 Norte 0 -- -- 57
2018-02-06 13:00:00 9.8 10 Norte 30 Norte 0 -- -- 63
2018-02-06 12:00:00 9.2 19 Nordeste 31 Norte 0 -- -- 59
2018-02-06 11:00:00 7.5 0 Calma 5 Nordeste 0 -- -- 81
2018-02-06 10:00:00 5 2 Nordeste 4 Este 0 -- -- 94
2018-02-06 09:00:00 3.6 2 Este 10 Oeste 0 -- -- 94
2018-02-06 08:00:00 3.4 5 Oeste 9 Oeste 0 -- -- 93
2018-02-06 07:00:00 3.4 6 Oeste 10 Oeste 0 -- -- 94
2018-02-06 06:00:00 3.3 2 Oeste 5 Sudoeste 0 -- -- 96
2018-02-06 05:00:00 2.8 0 Calma 5 Sudeste 0 -- -- 96
2018-02-06 04:00:00 2.5 0 Calma 5 Sudoeste 0 -- -- 95
2018-02-06 03:00:00 2.9 0 Calma 4 Sudoeste 0 -- -- 95
2018-02-06 02:00:00 3.3 0 Calma 6 Sudeste 0 -- -- 95
2018-02-06 01:00:00 4.3 3 Noroeste 4 Noroeste 0 -- -- 93
2018-02-06 00:00:00 5 2 Noroeste 7 Nordeste 0 -- -- 92
2018-02-05 23:00:00 4.6 3 Este 6 Este 0 -- -- 93
2018-02-05 22:00:00 5 4 Sudeste 6 Sudeste 0 -- -- 90
2018-02-05 21:00:00 5.7 4 Nordeste 12 Oeste 0 -- -- 85
2018-02-05 20:00:00 6.4 5 Oeste 12 Oeste 0 -- -- 82
2018-02-05 19:00:00 7 9 Oeste 16 Oeste 0 -- -- 78
2018-02-05 18:00:00 7.8 5 Oeste 21 Oeste 0 -- -- 71
2018-02-05 17:00:00 8.5 13 Oeste 23 Oeste 0 -- -- 67
2018-02-05 16:00:00 9.1 5 Sudoeste 18 Oeste 0.2 -- -- 69
2018-02-05 15:00:00 8.3 12 Oeste 20 Oeste 0 -- -- 68
2018-02-05 14:00:00 7.9 9 Oeste 22 Oeste 0 -- -- 71
2018-02-05 13:00:00 9.3 10 Oeste 19 Sudoeste 0 -- -- 68
2018-02-05 12:00:00 6.4 6 Sudoeste 12 Oeste 0 -- -- 87
2018-02-05 11:00:00 5.1 6 Sudoeste 11 Sudoeste 0 -- -- 89
2018-02-05 10:00:00 4.2 4 Oeste 7 Oeste 0 -- -- 94
2018-02-05 09:00:00 3.5 3 Oeste 5 Oeste 0.2 -- -- 95
2018-02-05 08:00:00 3.4 2 Sudeste 6 Sudoeste 0.2 -- -- 94
2018-02-05 07:00:00 3.5 3 Sudoeste 9 Sur 0 -- -- 94
2018-02-05 06:00:00 2.9 2 Sur 6 Oeste 0 -- -- 93
2018-02-05 05:00:00 3 4 Sudoeste 7 Oeste 0 -- -- 93
2018-02-05 04:00:00 3.3 3 Oeste 5 Oeste 0 -- -- 89
2018-02-05 03:00:00 3.9 0 Calma 4 Sudoeste 0 -- -- 89
2018-02-05 02:00:00 4 3 Sudoeste 4 Oeste 0 -- -- 89
2018-02-05 01:00:00 3.7 2 Sur 8 Noroeste 0 -- -- 88
2018-02-05 00:00:00 4.2 4 Noroeste 8 Noroeste 0 -- -- 82
2018-02-04 23:00:00 5.2 5 Noroeste 11 Norte 0 -- -- 78
2018-02-04 22:00:00 6.6 5 Oeste 13 Oeste 0 -- -- 83
2018-02-04 21:00:00 7.3 7 Sudoeste 16 Sudoeste 0 -- -- 82
2018-02-04 20:00:00 7.3 9 Sudoeste 17 Sudoeste 0 -- -- 79
2018-02-04 19:00:00 8.7 6 Oeste 12 Oeste 0 -- -- 61
2018-02-04 18:00:00 10.8 4 Oeste 14 Oeste 0 -- -- 54
2018-02-04 17:00:00 11.7 4 Noroeste 18 Oeste 0 -- -- 46
2018-02-04 16:00:00 11.5 9 Oeste 18 Oeste 0 -- -- 56
2018-02-04 15:00:00 11 8 Oeste 17 Oeste 0 -- -- 66
2018-02-04 14:00:00 9.3 11 Oeste 20 Oeste 0 -- -- 76
2018-02-04 13:00:00 8.8 7 Sudoeste 16 Sudoeste 0 -- -- 83
2018-02-04 12:00:00 7.6 7 Sudoeste 13 Sudoeste 0 -- -- 93
2018-02-04 11:00:00 6.2 6 Sudoeste 11 Sudoeste 0 -- -- 95
2018-02-04 10:00:00 4.9 0 Calma 4 Norte 0.2 -- -- 96
2018-02-04 09:00:00 4.3 0 Calma 2 Este 0 -- -- 96
2018-02-04 08:00:00 4.4 0 Calma 6 Noroeste 0 -- -- 94
2018-02-04 07:00:00 5 4 Sudoeste 9 Sudoeste 0 -- -- 94
2018-02-04 06:00:00 5.1 2 Sudoeste 6 Sur 0 -- -- 94
2018-02-04 05:00:00 4.9 3 Sudoeste 13 Oeste 0.8 -- -- 93
2018-02-04 04:00:00 5.2 5 Sur 13 Sur 1 -- -- 89
2018-02-04 03:00:00 4.7 0 Calma 6 Noroeste 0 -- -- 85
2018-02-04 02:00:00 4.6 5 Noroeste 10 Noroeste 0 -- -- 81
2018-02-04 01:00:00 4.9 3 Oeste 6 Sudoeste 0 -- -- 78
2018-02-04 00:00:00 5.6 5 Sudoeste 12 Sudoeste 0 -- -- 72
2018-02-03 23:00:00 6.1 3 Oeste 13 Sur 0 -- -- 68
2018-02-03 22:00:00 7 5 Sudoeste 13 Sudoeste 0 -- -- 63
2018-02-03 21:00:00 8.2 6 Sudoeste 14 Sudoeste 0 -- -- 57
2018-02-03 20:00:00 9.3 7 Oeste 14 Oeste 0 -- -- 50
2018-02-03 19:00:00 10.4 8 Sudoeste 14 Sudoeste 0 -- -- 49
2018-02-03 18:00:00 13.1 8 Sudoeste 17 Oeste 0 -- -- 40
2018-02-03 17:00:00 14.1 8 Sudoeste 20 Oeste 0 -- -- 38
2018-02-03 16:00:00 13.5 10 Sudoeste 23 Oeste 0 -- -- 38
2018-02-03 15:00:00 12.9 10 Oeste 17 Oeste 0 -- -- 39
2018-02-03 14:00:00 11.7 4 Norte 11 Oeste 0 -- -- 42
2018-02-03 13:00:00 9.9 4 Norte 10 Este 0 -- -- 47
2018-02-03 12:00:00 8.3 6 Sudeste 12 Este 0 -- -- 52
2018-02-03 11:00:00 5.1 5 Nordeste 11 Este 0 -- -- 64
2018-02-03 10:00:00 2.6 5 Este 9 Este 0 -- -- 77
2018-02-03 09:00:00 0.2 7 Este 10 Este 0 -- -- 85
2018-02-03 08:00:00 -0.3 4 Sudeste 8 Sudeste 0 -- -- 85
2018-02-03 07:00:00 0.5 5 Sudeste 8 Este 0 -- -- 81
2018-02-03 06:00:00 1 7 Este 10 Este 0 -- -- 79
2018-02-03 05:00:00 1.4 0 Calma 9 Nordeste 0 -- -- 77
2018-02-03 04:00:00 2.7 2 Nordeste 8 Norte 0 -- -- 67
2018-02-03 03:00:00 3 3 Norte 7 Noroeste 0 -- -- 67
2018-02-03 02:00:00 2.4 3 Noroeste 6 Noroeste 0 -- -- 74
2018-02-03 01:00:00 3 3 Sudeste 9 Oeste 0 -- -- 69
2018-02-03 00:00:00 4.3 2 Norte 10 Nordeste 0 -- -- 60
2018-02-02 23:00:00 5.1 0 Calma 13 Oeste 0 -- -- 59
2018-02-02 22:00:00 5.4 7 Oeste 10 Oeste 0 -- -- 56
2018-02-02 21:00:00 6.7 0 Calma 8 Oeste 0 -- -- 51
2018-02-02 20:00:00 8.8 0 Calma 10 Nordeste 0 -- -- 40
2018-02-02 19:00:00 10.3 7 Norte 21 Norte 0 -- -- 36
2018-02-02 18:00:00 12 13 Norte 32 Norte 0 -- -- 33
2018-02-02 17:00:00 13.2 19 Norte 32 Nordeste 0 -- -- 31
2018-02-02 16:00:00 12.9 13 Norte 24 Norte 0 -- -- 32
2018-02-02 15:00:00 12 13 Norte 23 Norte 0 -- -- 34
2018-02-02 14:00:00 12.4 9 Norte 27 Noroeste 0 -- -- 36
2018-02-02 13:00:00 11.2 4 Este 14 Oeste 0 -- -- 47
2018-02-02 12:00:00 9.5 9 Oeste 15 Oeste 0 -- -- 52
2018-02-02 11:00:00 7.5 6 Oeste -- -- -- -- -- 59
2018-02-02 10:00:00 5.8 9 Noroeste 19 Noroeste 0 -- -- 66
2018-02-02 09:00:00 4.1 6 Noroeste 13 Norte 0 -- -- 72
2018-02-02 08:00:00 3.9 4 Norte 15 Oeste 0 -- -- 72
2018-02-02 07:00:00 4.8 6 Noroeste 15 Oeste 0 -- -- 70
2018-02-02 06:00:00 4.9 4 Noroeste 18 Noroeste 0 -- -- 73
2018-02-02 05:00:00 5.2 8 Noroeste 21 Oeste 0 -- -- 74
2018-02-02 04:00:00 5.2 2 Noroeste 11 Oeste 0 -- -- 77
2018-02-02 03:00:00 6.4 8 Noroeste 15 Noroeste 0 -- -- 72
2018-02-02 02:00:00 6.3 7 Norte 18 Noroeste 0 -- -- 71
2018-02-02 01:00:00 7.1 8 Norte 40 Norte 0 -- -- 67
2018-02-02 00:00:00 9.7 22 Norte 35 Norte 0 -- -- 57
2018-02-01 23:00:00 10.6 11 Noroeste 26 Oeste 0 -- -- 46
2018-02-01 22:00:00 10.6 12 Noroeste 27 Noroeste 0 -- -- 63
2018-02-01 21:00:00 11.8 11 Oeste 21 Oeste 0 -- -- 64
2018-02-01 20:00:00 13 7 Noroeste 12 Noroeste 0 -- -- 61
2018-02-01 19:00:00 13.5 8 Oeste 27 Sudoeste 0 -- -- 66
2018-02-01 18:00:00 14.4 15 Sudoeste 31 Sudoeste 0 -- -- 60
2018-02-01 17:00:00 15.1 15 Sudoeste 32 Oeste 0 -- -- 57
2018-02-01 16:00:00 14.9 20 Sudoeste 33 Sudoeste 0 -- -- 60
2018-02-01 15:00:00 13.8 9 Oeste 17 Oeste 0 -- -- 74
2018-02-01 14:00:00 11.7 4 Noroeste 12 Oeste 0 -- -- 82
2018-02-01 13:00:00 10.2 5 Oeste 14 Oeste 0 -- -- 87
2018-02-01 12:00:00 9.5 8 Oeste 14 Oeste 0 -- -- 88
2018-02-01 11:00:00 7.2 3 Sudeste 5 Nordeste 0 -- -- 88
2018-02-01 10:00:00 6 3 Nordeste 6 Este 0 -- -- 94
2018-02-01 09:00:00 4.3 3 Sudeste 5 Sudeste 0 -- -- 96
2018-02-01 08:00:00 3.8 0 Calma 4 Sudoeste 0 -- -- 94
2018-02-01 07:00:00 3.9 3 Sudoeste 10 Sudoeste 0 -- -- 94
2018-02-01 06:00:00 4.5 3 Sur 6 Este 0 -- -- 91
2018-02-01 05:00:00 5.6 0 Calma 5 Norte 0 -- -- 87
2018-02-01 04:00:00 6.1 3 Este 8 Sudeste 0 -- -- 86
2018-02-01 03:00:00 7.3 4 Nordeste 8 Sudeste 0 -- -- 82
2018-02-01 02:00:00 8.3 5 Este 10 Sudeste 0 -- -- 78
2018-02-01 01:00:00 8.7 4 Este 8 Este 0 -- -- 77
2018-02-01 00:00:00 9.5 5 Este 9 Sudeste 0 -- -- 75
2018-01-31 23:00:00 10.3 4 Sudeste 10 Noroeste 0 -- -- 73
2018-01-31 22:00:00 10.7 5 Noroeste 12 Sudoeste 0 -- -- 69
2018-01-31 21:00:00 12.1 11 Sudoeste 17 Sur 0 -- -- 64
2018-01-31 20:00:00 11.9 0 Calma 9 Noroeste 0 -- -- 61
2018-01-31 19:00:00 13 5 Sudeste 10 Sur 0 -- -- 58
2018-01-31 18:00:00 15.2 5 Sudeste 16 Nordeste 0 -- -- 49
2018-01-31 17:00:00 16.3 10 Este 28 Este 0 -- -- 44
2018-01-31 16:00:00 16.7 12 Este 23 Este 0 -- -- 42
2018-01-31 15:00:00 15.4 13 Nordeste 23 Nordeste 0 -- -- 53
2018-01-31 14:00:00 14.1 15 Nordeste 27 Este 0 -- -- 53
2018-01-31 13:00:00 12.8 17 Este 28 Este 0 -- -- 58
2018-01-31 12:00:00 11.3 17 Este 28 Este 0 -- -- 64
2018-01-31 11:00:00 9.4 8 Nordeste 23 Este 0 -- -- 76
2018-01-31 10:00:00 7.3 9 Este 19 Este 0 -- -- 86
2018-01-31 09:00:00 7.2 12 Nordeste 21 Este 0 -- -- 85
2018-01-31 08:00:00 7.2 8 Este 13 Nordeste 0 -- -- 86
2018-01-31 07:00:00 6.9 5 Nordeste 11 Este 0 -- -- 88
2018-01-31 06:00:00 6.5 6 Este 10 Este 0 -- -- 90
2018-01-31 05:00:00 7.2 5 Este 10 Este 0 -- -- 86
2018-01-31 04:00:00 7 4 Este 7 Este 0 -- -- 87
2018-01-31 03:00:00 7.7 3 Nordeste 12 Nordeste 0 -- -- 84
2018-01-31 02:00:00 7.7 3 Nordeste 6 Este 0 -- -- 85
2018-01-31 01:00:00 8.4 3 Este 8 Nordeste 0 -- -- 81
2018-01-31 00:00:00 9 5 Este 12 Nordeste 0 -- -- 76
2018-01-30 23:00:00 9.7 4 Este 9 Este 0 -- -- 72
2018-01-30 22:00:00 10 5 Sudeste 7 Sudeste 0 -- -- 73
2018-01-30 21:00:00 11.3 2 Este 4 Este 0 -- -- 68
2018-01-30 20:00:00 11.9 3 Este 5 Este 0 -- -- 66
2018-01-30 19:00:00 13.6 2 Sudeste 6 Sudeste 0 -- -- 59
2018-01-30 18:00:00 15.2 2 Sudeste 9 Sudeste 0 -- -- 53
2018-01-30 17:00:00 15.9 7 Sudeste 17 Este 0 -- -- 49
2018-01-30 16:00:00 16.4 9 Este 16 Este 0 -- -- 44
2018-01-30 15:00:00 16 6 Sudeste 17 Este 0 -- -- 47
2018-01-30 14:00:00 15.7 12 Este 24 Nordeste 0 -- -- 47
2018-01-30 13:00:00 14.9 12 Este 28 Este 0 -- -- 48
2018-01-30 12:00:00 13.7 14 Este 35 Este 0 -- -- 53
2018-01-30 11:00:00 12.4 13 Este 28 Este 0 -- -- 56
2018-01-30 10:00:00 8.9 2 Nordeste 15 Nordeste 0 -- -- 78
2018-01-30 09:00:00 7.6 9 Este 26 Nordeste 0 -- -- 79
2018-01-30 08:00:00 8 13 Nordeste 25 Nordeste 0 -- -- 78
2018-01-30 07:00:00 7.3 8 Este 13 Este 0 -- -- 83
2018-01-30 06:00:00 6.6 5 Este 10 Nordeste 0 -- -- 85
2018-01-30 05:00:00 6.6 6 Nordeste 12 Nordeste 0 -- -- 85
2018-01-30 04:00:00 7.3 2 Sudeste 10 Nordeste 0 -- -- 80
2018-01-30 03:00:00 7.9 7 Nordeste 12 Nordeste 0 -- -- 77
2018-01-30 02:00:00 9.2 8 Este 15 Sudeste 0 -- -- 70
2018-01-30 01:00:00 10.4 9 Este 15 Sudeste 0 -- -- 65
2018-01-30 00:00:00 9.7 9 Este 20 Este 0 -- -- 69
2018-01-29 23:00:00 11.2 13 Este 20 Este 0 -- -- 62
2018-01-29 22:00:00 11.2 10 Este 18 Nordeste 0 -- -- 62
2018-01-29 21:00:00 12.2 4 Este 17 Nordeste 0 -- -- 57
2018-01-29 20:00:00 13.6 8 Nordeste 15 Este 0 -- -- 52
2018-01-29 19:00:00 15.7 8 Este 29 Este 0 -- -- 44
2018-01-29 18:00:00 17.3 19 Este 38 Este 0 -- -- 41
2018-01-29 17:00:00 18.3 25 Este 45 Este 0 -- -- 37
2018-01-29 16:00:00 18.7 28 Este 58 Nordeste 0 -- -- 37
2018-01-29 15:00:00 18.5 27 Este 62 Este 0 -- -- 38
2018-01-29 14:00:00 17.8 31 Nordeste 53 Este 0 -- -- 38
2018-01-29 13:00:00 17.2 39 Nordeste 68 Nordeste 0 -- -- 41
2018-01-29 12:00:00 16.3 36 Nordeste 58 Este 0 -- -- 44
2018-01-29 11:00:00 15.1 29 Este 55 Este 0 -- -- 49
2018-01-29 10:00:00 13.2 25 Nordeste 45 Nordeste 0 -- -- 56
2018-01-29 09:00:00 12 26 Nordeste 42 Nordeste 0 -- -- 59
2018-01-29 08:00:00 11.6 22 Este 40 Este 0 -- -- 62
2018-01-29 07:00:00 11.7 23 Este 42 Este 0 -- -- 61
2018-01-29 06:00:00 11.3 23 Este 40 Este 0 -- -- 61
2018-01-29 05:00:00 11 24 Este 39 Este 0 -- -- 62
2018-01-29 04:00:00 10.2 15 Nordeste 28 Este 0 -- -- 63
2018-01-29 03:00:00 10.2 16 Nordeste 30 Nordeste 0 -- -- 60
2018-01-29 02:00:00 8.8 14 Nordeste 23 Este 0 -- -- 62
2018-01-29 01:00:00 7.7 13 Nordeste 25 Este 0 -- -- 63
2018-01-29 00:00:00 7.2 11 Este 19 Este 0 -- -- 64
2018-01-28 23:00:00 8 8 Este 16 Este 0 -- -- 61
2018-01-28 22:00:00 9.1 10 Este 19 Nordeste 0 -- -- 57
2018-01-28 21:00:00 11.2 15 Este 28 Este 0 -- -- 48
2018-01-28 20:00:00 12.3 23 Este 42 Este 0 -- -- 42
2018-01-28 19:00:00 13 23 Este 40 Este 0 -- -- 40
2018-01-28 18:00:00 14 25 Este 61 Este 0 -- -- 43
2018-01-28 17:00:00 15.3 36 Este 65 Este 0 -- -- 40
2018-01-28 16:00:00 15.5 36 Este 57 Este 0 -- -- 38
2018-01-28 15:00:00 14.8 34 Este 56 Este 0 -- -- 43
2018-01-28 14:00:00 13.7 30 Este 55 Nordeste 0 -- -- 52
2018-01-28 13:00:00 12.6 31 Este 55 Este 0 -- -- 58
2018-01-28 12:00:00 10.3 24 Este 38 Este 0 -- -- 67
2018-01-28 11:00:00 6.5 2 Sudeste 9 Sur 0 -- -- 77
2018-01-28 10:00:00 4.7 6 Sur 9 Sur 0 -- -- 80
2018-01-28 09:00:00 3.7 3 Este 9 Sudeste 0 -- -- 79
2018-01-28 08:00:00 3.8 8 Sudeste 11 Sur 0 -- -- 79
2018-01-28 07:00:00 4.5 3 Sudeste 6 Nordeste 0 -- -- 77
2018-01-28 06:00:00 4.7 2 Norte 10 Norte 0 -- -- 72
2018-01-28 05:00:00 4.6 8 Norte 13 Norte 0 -- -- 72
2018-01-28 04:00:00 4.4 6 Norte 10 Norte 0 -- -- 73
2018-01-28 03:00:00 3.6 3 Nordeste 5 Este 0 -- -- 78
2018-01-28 02:00:00 4.6 3 Sudeste 9 Este 0 -- -- 74
2018-01-28 01:00:00 5.2 5 Este 12 Este 0 -- -- 72
2018-01-28 00:00:00 6 7 Este 12 Este 0 -- -- 67
2018-01-27 23:00:00 7 8 Este 12 Nordeste 0 -- -- 62
2018-01-27 22:00:00 7.1 10 Nordeste 15 Nordeste 0 -- -- 63
2018-01-27 21:00:00 7.2 9 Nordeste 13 Nordeste 0 -- -- 59
2018-01-27 20:00:00 7.9 6 Nordeste 13 Norte 0 -- -- 57
2018-01-27 19:00:00 10.2 7 Nordeste 27 Norte 0 -- -- 48
2018-01-27 18:00:00 12.6 17 Nordeste 37 Nordeste 0 -- -- 36
2018-01-27 17:00:00 13.2 19 Nordeste 37 Nordeste 0 -- -- 35
2018-01-27 16:00:00 13.9 18 Nordeste 37 Nordeste 0 -- -- 37
2018-01-27 15:00:00 13.4 22 Nordeste 42 Nordeste 0 -- -- 39
2018-01-27 14:00:00 13.3 24 Nordeste 43 Nordeste 0 -- -- 39
2018-01-27 13:00:00 12.9 24 Nordeste 36 Norte 0 -- -- 42
2018-01-27 12:00:00 11.3 5 Este 12 Nordeste 0 -- -- 52
2018-01-27 11:00:00 8.7 0 Calma 5 Noroeste 0 -- -- 68
2018-01-27 10:00:00 6.2 2 Sudeste 9 Norte 0 -- -- 79
2018-01-27 09:00:00 3.3 0 Calma 3 Norte 0 -- -- 88
2018-01-27 08:00:00 3.9 2 Sur 6 Nordeste 0 -- -- 83
2018-01-27 07:00:00 3.9 3 Nordeste 9 Norte 0 -- -- 83
2018-01-27 06:00:00 4.9 8 Norte 18 Norte 0 -- -- 79
2018-01-27 05:00:00 5.3 0 Calma 8 Nordeste 0 -- -- 77
2018-01-27 04:00:00 6.2 4 Norte 8 Noroeste 0 -- -- 74
2018-01-27 03:00:00 6.4 6 Este 15 Norte 0 -- -- 74
2018-01-27 02:00:00 6.9 5 Nordeste 8 Norte 0 -- -- 70
2018-01-27 01:00:00 7.1 3 Noroeste 10 Nordeste 0 -- -- 69
2018-01-27 00:00:00 7.9 2 Nordeste 15 Noroeste 0 -- -- 67
2018-01-26 23:00:00 8.6 8 Noroeste 27 Oeste 0 -- -- 65
2018-01-26 22:00:00 7.7 6 Oeste 16 Oeste 0 -- -- 70
2018-01-26 21:00:00 7.1 7 Oeste 10 Oeste 0 -- -- 75
2018-01-26 20:00:00 8.4 4 Noroeste 12 Oeste 0 -- -- 71
2018-01-26 19:00:00 10.1 8 Oeste 15 Noroeste 0 -- -- 64
2018-01-26 18:00:00 12.6 8 Noroeste 27 Noroeste 0 -- -- 55
2018-01-26 17:00:00 13.1 14 Noroeste 26 Noroeste 0 -- -- 53
2018-01-26 16:00:00 13.2 12 Noroeste 25 Noroeste 0 -- -- 53
2018-01-26 15:00:00 12.9 10 Noroeste 30 Oeste 0 -- -- 55
2018-01-26 14:00:00 12.1 12 Sudoeste 25 Oeste 0 -- -- 61
2018-01-26 13:00:00 10.8 9 Oeste 23 Oeste 0 -- -- 68
2018-01-26 12:00:00 9.5 10 Sudoeste 18 Sur 0 -- -- 75
2018-01-26 11:00:00 7.9 6 Sudoeste 13 Sudoeste 0 -- -- 80
2018-01-26 10:00:00 6.3 7 Sudoeste 14 Sudoeste 0 -- -- 85
2018-01-26 09:00:00 5 5 Sudoeste 15 Oeste 0 -- -- 85
2018-01-26 08:00:00 5.6 5 Sudoeste 24 Noroeste 0 -- -- 82
2018-01-26 07:00:00 4.6 3 Sur 16 Noroeste 0 -- -- 89
2018-01-26 06:00:00 4.7 2 Sudoeste 16 Oeste 0 -- -- 90
2018-01-26 05:00:00 4.7 5 Sudoeste 10 Sudoeste 0 -- -- 91
2018-01-26 04:00:00 5 4 Sudoeste 11 Oeste 0 -- -- 89
2018-01-26 03:00:00 5.7 3 Sur 14 Oeste 0 -- -- 90
2018-01-26 02:00:00 6.7 10 Oeste 19 Sudoeste 0 -- -- 89
2018-01-26 01:00:00 7.1 9 Sudoeste 19 Oeste 0 -- -- 89
2018-01-26 00:00:00 8.3 13 Oeste 22 Oeste 0 -- -- 86
2018-01-25 23:00:00 9.2 9 Oeste 26 Oeste 0 -- -- 97
2018-01-25 22:00:00 10.2 16 Oeste 26 Sudoeste 0 -- -- 98
2018-01-25 21:00:00 10.4 12 Sudoeste 25 Oeste 0.4 -- -- 98
2018-01-25 20:00:00 10.6 17 Oeste 33 Oeste 2 -- -- 98
2018-01-25 19:00:00 10.5 14 Oeste 29 Oeste 1.4 -- -- 97
2018-01-25 18:00:00 10.6 14 Oeste 36 Oeste 0.2 -- -- 96
2018-01-25 17:00:00 11.3 22 Oeste 40 Oeste 0.2 -- -- 88
2018-01-25 16:00:00 13.3 15 Oeste 38 Sudoeste 0 -- -- 74
2018-01-25 15:00:00 14.5 14 Sudoeste 30 Sudoeste 0 -- -- 72
2018-01-25 14:00:00 13.5 8 Oeste 23 Sudoeste 0 -- -- 84
2018-01-25 13:00:00 11.9 10 Oeste 21 Oeste 0 -- -- 92
2018-01-25 12:00:00 11.1 5 Noroeste 10 Oeste 0 -- -- 96
2018-01-25 11:00:00 10.9 2 Sudoeste 6 Sudoeste 0 -- -- 99
2018-01-25 10:00:00 9.7 0 Calma 3 Este 0 -- -- 99
2018-01-25 09:00:00 9.4 0 Calma 4 Sudeste 0 -- -- 99
2018-01-25 08:00:00 9.3 0 Calma 4 Sur 0 -- -- 99
2018-01-25 07:00:00 9.4 3 Sur 4 Sur 0 -- -- 99
2018-01-25 06:00:00 9.3 2 Sudoeste 4 Oeste 0 -- -- 98
2018-01-25 05:00:00 9 0 Calma 2 Sudeste 0 -- -- 98
2018-01-25 04:00:00 8.7 0 Calma 3 Sudeste 0 -- -- 98
2018-01-25 03:00:00 8 0 Calma 2 Sudeste 0 -- -- 97
2018-01-25 02:00:00 7.7 0 Calma 4 Este 0 -- -- 96
2018-01-25 01:00:00 8.6 0 Calma 4 Sur 0 -- -- 94
2018-01-25 00:00:00 9.3 0 Calma 5 Oeste 0 -- -- 94
2018-01-24 23:00:00 9.8 0 Calma 5 Noroeste 0 -- -- 91
2018-01-24 22:00:00 10.5 0 Calma 7 Sur 0 -- -- 87
2018-01-24 21:00:00 12 3 Sur 8 Sudoeste 0 -- -- 81
2018-01-24 20:00:00 13.2 2 Sudoeste 4 Sudoeste 0 -- -- 76
2018-01-24 19:00:00 15.9 0 Calma 3 Nordeste 0 -- -- 64
2018-01-24 18:00:00 17.6 2 Nordeste 8 Este 0 -- -- 59
2018-01-24 17:00:00 18.3 4 Nordeste 9 Nordeste 0 -- -- 56
2018-01-24 16:00:00 18 5 Nordeste 14 Nordeste 0 -- -- 57
2018-01-24 15:00:00 17.3 8 Este 18 Este 0 -- -- 57
2018-01-24 14:00:00 15.9 11 Nordeste 21 Nordeste 0 -- -- 63
2018-01-24 13:00:00 13.9 13 Nordeste 21 Este 0 -- -- 70
2018-01-24 12:00:00 11.7 10 Este 18 Este 0 -- -- 80
2018-01-24 11:00:00 9 8 Nordeste 14 Nordeste 0 -- -- 91
2018-01-24 10:00:00 7.3 8 Este 15 Nordeste 0 -- -- 96
2018-01-24 09:00:00 5.7 7 Este 12 Este 0.2 -- -- 98
2018-01-24 08:00:00 5.6 5 Este 10 Este 0 -- -- 98
2018-01-24 07:00:00 5.5 7 Este 11 Este 0 -- -- 98
2018-01-24 06:00:00 5.7 7 Este 11 Este 0 -- -- 98
2018-01-24 05:00:00 6.1 4 Este 11 Este 0 -- -- 97
2018-01-24 04:00:00 6.5 5 Este 10 Este 0 -- -- 97
2018-01-24 03:00:00 7.2 5 Este 12 Este 0 -- -- 96
2018-01-24 02:00:00 7.8 7 Este 9 Este 0 -- -- 95
2018-01-24 01:00:00 8.5 5 Sudeste 8 Sudeste 0 -- -- 94
2018-01-24 00:00:00 9.1 0 Calma 3 Este 0 -- -- 91
2018-01-23 23:00:00 9.5 0 Calma 5 Sudoeste 0 -- -- 89
2018-01-23 22:00:00 10.7 4 Sudoeste 10 Sur 0 -- -- 85
2018-01-23 21:00:00 11.4 2 Sudoeste 5 Sudoeste 0 -- -- 81
2018-01-23 20:00:00 13.6 0 Calma 4 Sudoeste 0 -- -- 71
2018-01-23 19:00:00 16.1 3 Oeste 4 Sudoeste 0 -- -- 60
2018-01-23 18:00:00 19.7 0 Calma 3 Sudeste 0 -- -- 51
2018-01-23 17:00:00 19.7 2 Sudeste 7 Norte 0 -- -- 51
2018-01-23 16:00:00 18.1 6 Nordeste 10 Nordeste 0 -- -- 55
2018-01-23 15:00:00 17 6 Nordeste 11 Nordeste 0 -- -- 59
2018-01-23 14:00:00 15.2 4 Norte 13 Este 0 -- -- 68
2018-01-23 13:00:00 13.3 10 Nordeste 18 Este 0 -- -- 73
2018-01-23 12:00:00 11.3 9 Nordeste 15 Nordeste 0 -- -- 81
2018-01-23 11:00:00 8.7 9 Nordeste 14 Este 0 -- -- 90
2018-01-23 10:00:00 6.8 8 Nordeste 13 Nordeste 0 -- -- 97
2018-01-23 09:00:00 4.7 4 Este 8 Nordeste 0 -- -- 98
2018-01-23 08:00:00 5.2 4 Este 8 Nordeste 0 -- -- 97
2018-01-23 07:00:00 5.1 6 Este 11 Nordeste 0 -- -- 98
2018-01-23 06:00:00 5.2 4 Nordeste 9 Nordeste 0 -- -- 97
2018-01-23 05:00:00 5.4 6 Este 8 Este 0 -- -- 96
2018-01-23 04:00:00 6.2 0 Calma 7 Este 0 -- -- 95
2018-01-23 03:00:00 6.5 5 Nordeste 14 Norte 0 -- -- 94
2018-01-23 02:00:00 7.5 3 Nordeste 9 Nordeste 0 -- -- 91
2018-01-23 01:00:00 8.2 4 Nordeste 8 Este 0 -- -- 90
2018-01-23 00:00:00 8.5 4 Norte 8 Noroeste 0 -- -- 91
2018-01-22 23:00:00 9.9 5 Oeste 6 Oeste 0 -- -- 88
2018-01-22 22:00:00 11.4 3 Norte 9 Noroeste 0 -- -- 84
2018-01-22 21:00:00 12.7 6 Noroeste 12 Noroeste 0 -- -- 82
2018-01-22 20:00:00 12.9 0 Calma 3 Este 0 -- -- 81
2018-01-22 19:00:00 15.3 0 Calma 6 Noroeste 0 -- -- 73
2018-01-22 18:00:00 18.8 3 Oeste 4 Oeste 0 -- -- 58
2018-01-22 17:00:00 18.4 2 Sudeste 9 Sudeste 0 -- -- 58
2018-01-22 16:00:00 17.3 3 Sudeste 11 Este 0 -- -- 66
2018-01-22 15:00:00 15.9 4 Este 15 Este 0 -- -- 69
2018-01-22 14:00:00 13.9 6 Este 10 Este 0 -- -- 75
2018-01-22 13:00:00 11.2 8 Nordeste 14 Este 0 -- -- 86
2018-01-22 12:00:00 8.9 8 Este 15 Este 0 -- -- 94
2018-01-22 11:00:00 7.7 6 Este 12 Este 0 -- -- 100
2018-01-22 10:00:00 5.6 7 Sudeste 10 Este 0 -- -- 100
2018-01-22 09:00:00 4.2 3 Este 8 Este 0.2 -- -- 99
2018-01-22 08:00:00 4.6 4 Este 10 Este 0 -- -- 99
2018-01-22 07:00:00 5.2 6 Este 10 Este 0 -- -- 99
2018-01-22 06:00:00 5.6 7 Este 12 Este 0 -- -- 99
2018-01-22 05:00:00 6.3 6 Este 10 Este 0 -- -- 99
2018-01-22 04:00:00 5.7 6 Sudeste 10 Este 0 -- -- 98
2018-01-22 03:00:00 6.3 5 Este 12 Nordeste 0 -- -- 97
2018-01-22 02:00:00 7.2 3 Sudeste 8 Sudeste 0 -- -- 94
2018-01-22 01:00:00 7.9 3 Este 5 Sudeste 0 -- -- 94
2018-01-22 00:00:00 8.2 0 Calma 5 Sudoeste 0 -- -- 96